Time;durP1;ratioP1;P1;durP2;ratioP2;P2;SDS_P1;SDS_P2;PMS_P1;PMS_P2;Temp;Humidity;BMP_temperature;BMP_pressure;BME280_temperature;BME280_humidity;BME280_pressure;Samples;Min_cycle;Max_cycle;Signal;HPM_P1;HPM_P2
2023/03/26 00:01:38;;;;;;;7.07;3.23;;;8.10;99.90;;;11.18;53.57;97107.09;5058939;28;20044;-45
2023/03/26 00:04:06;;;;;;;6.33;2.60;;;8.20;99.90;;;11.22;53.55;97115.56;5060487;28;20492;-46
2023/03/26 00:06:38;;;;;;;9.00;3.00;;;8.20;99.90;;;11.21;53.14;97112.06;5044322;28;20048;-46
2023/03/26 00:09:11;;;;;;;9.17;3.80;;;8.20;99.90;;;11.20;53.56;97117.56;5058163;28;20488;-43
2023/03/26 00:11:41;;;;;;;1.70;1.60;;;8.20;99.90;;;11.14;53.17;97123.63;5043936;28;20052;-47
2023/03/26 00:14:12;;;;;;;2.07;1.30;;;8.20;99.90;;;11.12;53.74;97112.31;5062651;28;20419;-47
2023/03/26 00:16:41;;;;;;;3.47;1.50;;;8.10;99.90;;;11.03;53.59;97117.72;5062736;28;20052;-43
2023/03/26 00:19:10;;;;;;;3.67;1.40;;;8.10;99.90;;;11.14;53.19;97118.28;5062772;28;20045;-45
2023/03/26 00:21:38;;;;;;;3.53;1.53;;;8.10;99.90;;;11.15;52.79;97115.47;5062569;28;20041;-44
2023/03/26 00:24:13;;;;;;;2.73;1.57;;;8.20;99.90;;;11.17;53.24;97115.28;5065212;28;20520;-44
2023/03/26 00:26:42;;;;;;;7.77;2.13;;;8.20;99.90;;;11.10;53.12;97123.16;5049047;28;20044;-45
2023/03/26 00:29:12;;;;;;;3.60;1.40;;;8.10;99.90;;;11.12;52.85;97114.97;5047784;28;20059;-48
2023/03/26 00:31:40;;;;;;;5.03;1.70;;;8.10;99.90;;;11.16;52.66;97127.75;5039618;28;20040;-44
2023/03/26 00:34:09;;;;;;;4.63;1.67;;;8.10;99.90;;;11.18;52.83;97117.75;5063494;28;20045;-45
2023/03/26 00:36:36;;;;;;;6.57;2.37;;;8.10;99.90;;;11.17;52.89;97118.78;5047245;28;20045;-43
2023/03/26 00:39:04;;;;;;;6.33;2.57;;;8.10;99.90;;;11.17;52.52;97105.44;5062526;28;20429;-46
2023/03/26 00:41:35;;;;;;;8.47;2.77;;;8.10;99.90;;;11.16;52.76;97114.44;5061922;28;20045;-44
2023/03/26 00:44:03;;;;;;;3.63;1.90;;;8.10;99.90;;;11.18;52.44;97103.59;5045998;28;20056;-46
2023/03/26 00:46:31;;;;;;;6.60;2.57;;;8.10;99.90;;;11.15;52.54;97098.66;5065373;28;20048;-46
2023/03/26 00:49:00;;;;;;;9.23;2.20;;;8.10;99.90;;;11.17;52.34;97092.13;5052786;28;20415;-44
2023/03/26 00:51:28;;;;;;;5.03;1.90;;;8.10;99.90;;;11.18;52.26;97087.63;5029782;28;20048;-42
2023/03/26 00:53:57;;;;;;;6.87;3.23;;;8.10;99.90;;;11.19;52.14;97087.44;5052161;28;20051;-44
2023/03/26 00:56:25;;;;;;;8.20;2.90;;;8.20;99.90;;;11.22;52.45;97088.91;5046368;28;20076;-44
2023/03/26 00:58:52;;;;;;;7.17;2.60;;;8.20;99.90;;;11.23;52.26;97078.09;5057263;28;20056;-46
2023/03/26 01:01:26;;;;;;;5.60;2.10;;;8.20;99.90;;;11.22;52.12;97072.94;5044581;28;20055;-44
2023/03/26 01:03:57;;;;;;;4.53;2.00;;;8.20;99.90;;;11.22;51.82;97070.28;5060688;28;20498;-44
2023/03/26 01:06:40;;;;;;;5.93;1.80;;;8.20;99.90;;;11.23;51.83;97062.09;5046740;28;20044;-43
2023/03/26 01:09:17;;;;;;;3.17;1.27;;;8.20;99.90;;;11.20;52.06;97058.97;5043036;28;20045;-46
2023/03/26 01:11:48;;;;;;;3.30;1.80;;;8.20;99.90;;;11.20;51.93;97062.44;5031834;28;20373;-48
2023/03/26 01:14:25;;;;;;;8.00;2.63;;;8.20;99.90;;;11.18;51.75;97053.81;5047846;28;20032;-47
2023/03/26 01:17:00;;;;;;;8.03;2.87;;;8.20;99.90;;;11.17;51.89;97057.50;5063838;28;20033;-48
2023/03/26 01:19:38;;;;;;;4.53;1.57;;;8.20;99.90;;;11.16;51.80;97047.84;5061185;28;20084;-42
2023/03/26 01:22:10;;;;;;;5.83;1.60;;;8.20;99.90;;;11.18;51.68;97032.50;5063370;28;20064;-47
2023/03/26 01:24:39;;;;;;;7.47;3.37;;;8.20;99.90;;;11.22;51.48;97040.97;5047067;28;20040;-45
2023/03/26 01:27:27;;;;;;;5.33;1.73;;;8.20;99.90;;;11.21;51.69;97034.00;5054836;28;20063;-43
2023/03/26 01:30:40;;;;;;;10.20;2.90;;;8.20;99.90;;;11.20;51.61;97035.81;5054591;28;20052;-45
2023/03/26 01:33:19;;;;;;;4.73;2.20;;;8.20;99.90;;;11.27;51.40;97029.78;5046566;28;20091;-46
2023/03/26 01:35:56;;;;;;;6.37;1.70;;;8.20;99.90;;;11.27;51.44;97029.78;5047885;28;20041;-44
2023/03/26 01:39:01;;;;;;;9.30;2.00;;;8.20;99.90;;;11.27;51.56;97027.94;5056446;28;20063;-46
2023/03/26 01:41:56;;;;;;;4.97;1.65;;;8.30;99.90;;;11.26;51.62;97023.59;5026032;28;20052;-44
2023/03/26 01:44:56;;;;;;;4.37;1.90;;;8.20;99.90;;;11.27;51.47;97021.78;5039992;28;20036;-46
2023/03/26 01:47:24;;;;;;;6.10;1.60;;;8.20;99.90;;;11.28;51.31;97015.44;5049684;28;20044;-43
2023/03/26 01:49:52;;;;;;;4.53;2.63;;;8.20;99.90;;;11.27;51.63;97005.78;5044577;28;20056;-46
2023/03/26 01:52:24;;;;;;;4.43;1.80;;;8.20;99.90;;;11.27;51.45;97003.94;5060392;28;20485;-43
2023/03/26 01:54:56;;;;;;;5.10;1.97;;;8.20;99.90;;;11.29;51.57;96995.78;5061239;28;20041;-44
2023/03/26 01:57:52;;;;;;;4.03;1.47;;;8.20;99.90;;;11.28;51.52;96991.44;5045618;28;20499;-45
2023/03/26 02:00:34;;;;;;;3.60;1.60;;;8.20;99.90;;;11.28;51.38;96994.13;5052236;28;20041;-47
2023/03/26 02:03:25;;;;;;;6.03;1.73;;;8.10;99.90;;;11.29;51.38;96980.63;5042330;28;20508;-43
2023/03/26 02:06:17;;;;;;;6.97;2.23;;;8.10;99.90;;;11.31;51.26;96970.59;5029939;28;20052;-45
2023/03/26 02:09:07;;;;;;;4.13;1.37;;;8.20;99.90;;;11.32;51.81;96968.75;5060178;28;20041;-48
2023/03/26 02:11:38;;;;;;;5.63;1.80;;;8.20;99.90;;;11.31;51.42;96953.78;5042327;28;20041;-45
2023/03/26 02:14:08;;;;;;;4.23;2.10;;;8.20;99.90;;;11.34;51.10;96948.94;5051058;28;20033;-46
2023/03/26 02:16:35;;;;;;;3.10;1.40;;;8.20;99.90;;;11.32;51.47;96939.44;5042618;28;20540;-44
2023/03/26 02:19:04;;;;;;;5.00;1.80;;;8.20;99.90;;;11.35;51.16;96944.41;5043292;28;20060;-48
2023/03/26 02:21:32;;;;;;;3.97;2.20;;;8.20;99.90;;;11.33;51.54;96941.94;5053764;28;20048;-43
2023/03/26 02:24:03;;;;;;;5.27;1.63;;;8.20;99.90;;;11.37;51.38;96929.06;5063406;28;20547;-44
2023/03/26 02:26:36;;;;;;;3.73;1.70;;;8.20;99.90;;;11.38;51.78;96923.56;5061887;28;20060;-43
2023/03/26 02:29:12;;;;;;;4.13;1.77;;;8.20;99.90;;;11.38;51.45;96925.38;5050014;28;20369;-47
2023/03/26 02:31:42;;;;;;;3.20;1.70;;;8.30;99.90;;;11.38;51.63;96923.56;5058073;28;20049;-45
2023/03/26 02:34:10;;;;;;;3.77;1.63;;;8.20;99.90;;;11.36;51.64;96927.41;5062161;28;20055;-44
2023/03/26 02:36:45;;;;;;;10.13;2.10;;;8.20;99.90;;;11.35;51.62;96923.91;5053412;28;20056;-43
2023/03/26 02:39:13;;;;;;;4.53;1.57;;;8.20;99.90;;;11.36;51.83;96928.25;5053149;28;20508;-49
2023/03/26 02:41:45;;;;;;;2.60;1.77;;;8.20;99.90;;;11.37;51.35;96927.22;5053424;28;20056;-43
2023/03/26 02:44:12;;;;;;;4.13;1.87;;;8.20;99.90;;;11.37;51.60;96921.06;5063085;28;20396;-45
2023/03/26 02:46:58;;;;;;;2.57;1.30;;;8.30;99.90;;;11.36;51.81;96914.06;5063021;28;20397;-42
2023/03/26 02:49:44;;;;;;;5.93;1.60;;;8.20;99.90;;;11.33;51.72;96917.94;5046121;28;20420;-46
2023/03/26 02:52:19;;;;;;;4.77;1.40;;;8.20;99.90;;;11.36;51.94;96914.06;5049288;28;20044;-45
2023/03/26 02:54:49;;;;;;;2.40;1.77;;;8.20;99.90;;;11.34;52.01;96919.63;5062171;28;20045;-46
2023/03/26 02:57:19;;;;;;;5.83;2.20;;;8.20;99.90;;;11.34;51.55;96916.94;5049339;28;20033;-47
2023/03/26 02:59:51;;;;;;;9.00;1.90;;;8.20;99.90;;;11.33;51.94;96906.47;5059156;28;20415;-49
2023/03/26 03:02:56;;;;;;;2.10;1.27;;;8.20;99.90;;;11.35;51.82;96902.59;4986547;28;20053;-45
2023/03/26 03:05:31;;;;;;;5.03;1.80;;;8.20;99.90;;;11.33;52.12;96896.63;5032117;28;20044;-46
2023/03/26 03:08:17;;;;;;;5.88;2.15;;;8.20;99.90;;;11.37;51.48;96892.59;5052008;28;20047;-46
2023/03/26 03:11:09;;;;;;;5.30;1.73;;;8.20;99.90;;;11.36;51.65;96884.75;5051080;28;20423;-43
2023/03/26 03:13:45;;;;;;;4.50;1.60;;;8.20;99.90;;;11.22;52.06;96883.75;5044990;28;20060;-46
2023/03/26 03:16:16;;;;;;;3.67;1.43;;;8.10;99.90;;;11.24;51.91;96881.75;5052340;28;20045;-45
2023/03/26 03:18:46;;;;;;;3.80;1.40;;;8.10;99.90;;;11.25;52.26;96877.25;5061079;28;20056;-46
2023/03/26 03:21:14;;;;;;;3.63;1.50;;;8.10;99.90;;;11.26;52.36;96868.25;5058163;28;20080;-43
2023/03/26 03:23:41;;;;;;;6.13;2.30;;;8.20;99.90;;;11.30;52.09;96864.19;5043975;28;20424;-43
2023/03/26 03:26:16;;;;;;;5.00;1.93;;;8.20;99.90;;;11.35;52.28;96864.47;5057027;28;20072;-44
2023/03/26 03:28:50;;;;;;;3.43;2.47;;;8.30;99.90;;;11.37;51.66;96863.25;5045270;28;20056;-43
2023/03/26 03:31:18;;;;;;;2.60;1.57;;;8.30;99.90;;;11.42;51.83;96855.56;5061922;28;20200;-46
2023/03/26 03:33:46;;;;;;;5.27;1.47;;;8.40;99.90;;;11.43;52.00;96851.88;5044519;28;20045;-44
2023/03/26 03:36:17;;;;;;;5.07;2.10;;;8.40;99.90;;;11.46;51.86;96848.03;5059538;28;20412;-43
2023/03/26 03:38:50;;;;;;;4.50;1.57;;;8.30;99.90;;;11.47;51.86;96836.31;5040475;28;20049;-43
2023/03/26 03:41:20;;;;;;;4.50;1.47;;;8.30;99.90;;;11.49;51.99;96826.31;5057194;28;20420;-44
2023/03/26 03:43:48;;;;;;;2.47;1.63;;;8.40;99.90;;;11.48;51.59;96829.19;5048452;28;20049;-47
2023/03/26 03:46:22;;;;;;;4.23;1.40;;;8.40;99.90;;;11.49;51.93;96817.50;5039757;28;20049;-44
2023/03/26 03:48:50;;;;;;;6.63;2.17;;;8.30;99.90;;;11.47;52.03;96819.53;5061206;28;20060;-45
2023/03/26 03:51:26;;;;;;;2.10;1.40;;;8.30;99.90;;;11.50;51.77;96821.81;5061322;28;20040;-47
2023/03/26 03:53:58;;;;;;;3.50;1.43;;;8.30;99.90;;;11.51;51.84;96816.28;5052023;28;20056;-47
2023/03/26 03:56:38;;;;;;;3.63;1.33;;;8.40;99.90;;;11.48;51.94;96824.66;5052294;28;20048;-47
2023/03/26 03:59:28;;;;;;;5.20;1.90;;;8.30;99.90;;;11.50;51.77;96817.31;5055103;28;20104;-45
2023/03/26 04:01:56;;;;;;;4.03;1.50;;;8.40;99.90;;;11.47;51.77;96825.66;5052368;28;20049;-43
2023/03/26 04:04:31;;;;;;;3.83;1.53;;;8.30;99.90;;;11.49;52.18;96823.63;5051311;28;20056;-44
2023/03/26 04:07:03;;;;;;;4.93;1.70;;;8.40;99.80;;;11.47;51.73;96820.34;5043685;28;20045;-47
2023/03/26 04:09:37;;;;;;;5.60;1.60;;;8.40;99.80;;;11.48;51.90;96821.19;5052617;28;20519;-44
2023/03/26 04:12:12;;;;;;;3.93;1.53;;;8.40;99.40;;;11.48;52.27;96800.69;5060588;28;20045;-44
2023/03/26 04:14:45;;;;;;;5.43;1.70;;;8.40;99.50;;;11.51;51.73;96791.47;5043880;28;20063;-44
2023/03/26 04:17:15;;;;;;;2.77;1.30;;;8.40;99.20;;;11.51;52.15;96794.13;5059586;28;20048;-46
2023/03/26 04:19:44;;;;;;;4.70;1.77;;;8.40;99.10;;;11.53;51.91;96789.44;5057520;28;20045;-43
2023/03/26 04:22:17;;;;;;;4.87;1.97;;;8.40;98.80;;;11.56;51.64;96779.22;5049649;28;20060;-43
2023/03/26 04:24:53;;;;;;;4.27;1.60;;;8.40;98.70;;;11.57;51.77;96780.91;5044116;28;20045;-47
2023/03/26 04:27:34;;;;;;;3.60;1.43;;;8.50;98.80;;;11.61;51.97;96773.31;5040113;28;20040;-44
2023/03/26 04:30:19;;;;;;;3.40;1.30;;;8.50;98.10;;;11.61;51.78;96774.19;5041890;28;20449;-44
2023/03/26 04:32:57;;;;;;;4.77;1.70;;;8.40;98.40;;;11.63;51.92;96766.81;5027901;28;20423;-43
2023/03/26 04:35:29;;;;;;;4.23;1.90;;;8.50;98.20;;;11.67;51.87;96763.75;5043887;28;20051;-45
2023/03/26 04:37:57;;;;;;;5.83;1.70;;;8.50;98.20;;;11.66;51.91;96756.78;5051896;28;20055;-45
2023/03/26 04:40:33;;;;;;;2.83;1.90;;;8.50;98.10;;;11.69;51.71;96735.06;5047141;28;20041;-48
2023/03/26 04:43:17;;;;;;;2.67;2.07;;;8.50;98.00;;;11.72;51.94;96724.84;5030685;28;20060;-46
2023/03/26 04:46:02;;;;;;;4.07;1.53;;;8.60;97.50;;;11.75;51.83;96715.66;5053130;28;20432;-46
2023/03/26 04:48:33;;;;;;;6.97;2.13;;;8.60;97.20;;;11.77;51.83;96724.28;5041687;28;20041;-44
2023/03/26 04:51:01;;;;;;;4.93;1.87;;;8.60;97.30;;;11.77;51.76;96717.09;5056940;28;20052;-49
2023/03/26 04:53:28;;;;;;;5.07;2.77;;;8.70;97.20;;;11.76;51.56;96722.63;5041108;28;20500;-47
2023/03/26 04:56:29;;;;;;;3.25;1.90;;;8.60;97.00;;;11.76;51.71;96717.28;5046885;28;20068;-50
2023/03/26 04:59:33;;;;;;;5.07;1.90;;;8.70;97.00;;;11.76;51.94;96720.78;5040998;28;20044;-46
2023/03/26 05:02:06;;;;;;;5.07;1.37;;;8.60;96.80;;;11.77;51.43;96738.44;5039618;28;20531;-45
2023/03/26 05:04:45;;;;;;;6.43;2.07;;;8.60;96.90;;;11.74;51.78;96733.47;5038067;28;20052;-46
2023/03/26 05:07:23;;;;;;;6.27;2.57;;;8.60;97.20;;;11.71;52.00;96728.53;5053327;28;20551;-46
2023/03/26 05:09:56;;;;;;;4.80;1.90;;;8.50;98.10;;;11.73;51.72;96734.50;5031818;28;20405;-50
2023/03/26 05:12:53;;;;;;;6.17;2.57;;;8.50;97.00;;;11.73;51.69;96721.16;5054171;28;20052;-46
2023/03/26 05:15:25;;;;;;;5.47;1.50;;;8.50;96.60;;;11.74;51.57;96722.00;5044022;28;20413;-44
2023/03/26 05:17:54;;;;;;;3.53;1.63;;;8.50;96.40;;;11.75;51.28;96705.00;5068757;28;20041;-44
2023/03/26 05:20:29;;;;;;;3.73;1.77;;;8.60;95.70;;;11.76;51.43;96703.97;5056570;28;20048;-43
2023/03/26 05:22:57;;;;;;;4.20;1.70;;;8.60;95.40;;;11.76;51.52;96698.63;5046100;28;20115;-44
2023/03/26 05:25:30;;;;;;;5.55;2.92;;;8.50;94.80;;;11.76;51.48;96691.44;5042868;28;20060;-45
2023/03/26 05:28:00;;;;;;;6.83;1.73;;;8.60;94.70;;;11.76;51.45;96675.44;5059559;28;20512;-42
2023/03/26 05:30:39;;;;;;;5.77;2.10;;;8.50;94.50;;;11.80;51.48;96671.38;5039933;28;20512;-45
2023/03/26 05:33:06;;;;;;;3.90;2.50;;;8.60;94.40;;;11.80;51.30;96663.38;5063001;28;20388;-45
2023/03/26 05:36:12;;;;;;;3.20;1.87;;;8.60;93.90;;;11.82;51.34;96658.69;5054141;28;20056;-50
2023/03/26 05:38:48;;;;;;;3.08;1.33;;;8.70;93.00;;;11.89;51.03;96655.25;5044892;28;20037;-47
2023/03/26 05:41:35;;;;;;;2.90;1.80;;;8.70;93.10;;;11.95;50.94;96652.66;5060612;28;20068;-44
2023/03/26 05:44:03;;;;;;;7.57;1.60;;;8.70;92.50;;;11.94;50.90;96645.69;5043062;28;20052;-45
2023/03/26 05:46:31;;;;;;;3.33;1.50;;;8.80;92.20;;;11.93;51.28;96641.34;5062865;28;20118;-45
2023/03/26 05:48:59;;;;;;;5.70;1.53;;;8.70;92.40;;;11.90;50.76;96647.06;5045239;28;20059;-46
2023/03/26 05:51:31;;;;;;;4.30;1.80;;;8.70;92.50;;;11.89;51.05;96645.44;5034891;28;20045;-47
2023/03/26 05:54:19;;;;;;;4.30;1.60;;;8.70;92.40;;;11.91;50.69;96634.56;5053558;28;20049;-49
2023/03/26 05:57:05;;;;;;;4.63;1.40;;;8.70;92.90;;;11.89;50.65;96629.44;5064841;28;20578;-45
2023/03/26 05:59:51;;;;;;;5.43;1.57;;;8.70;91.60;;;11.92;50.98;96621.06;5063112;28;20047;-47
2023/03/26 06:02:19;;;;;;;5.67;1.73;;;8.70;91.00;;;11.90;50.69;96619.56;5060354;28;20049;-46
2023/03/26 06:05:06;;;;;;;5.07;1.63;;;8.70;89.80;;;11.89;50.46;96609.91;5061070;28;20432;-51
2023/03/26 06:07:45;;;;;;;4.93;1.43;;;8.70;90.20;;;11.89;50.41;96597.44;5064971;28;20049;-46
2023/03/26 06:10:16;;;;;;;5.33;1.30;;;8.70;89.50;;;11.91;50.82;96591.91;5042116;28;20049;-46
2023/03/26 06:12:46;;;;;;;6.10;1.80;;;8.80;89.20;;;11.93;50.53;96589.88;5039859;28;20045;-48
2023/03/26 06:15:14;;;;;;;3.73;1.60;;;8.80;88.70;;;11.97;50.50;96589.25;5058731;28;20060;-46
2023/03/26 06:17:58;;;;;;;4.37;2.00;;;8.80;88.20;;;11.98;50.23;96580.25;5044509;28;20416;-45
2023/03/26 06:20:44;;;;;;;5.43;1.50;;;8.80;87.90;;;12.00;50.46;96570.22;5049886;28;20049;-45
2023/03/26 06:23:26;;;;;;;4.10;1.97;;;8.90;88.10;;;12.06;50.36;96562.44;5040978;28;20416;-49
2023/03/26 06:26:12;;;;;;;4.00;1.40;;;8.90;87.90;;;12.07;50.19;96554.22;5061015;28;20064;-46
2023/03/26 06:28:49;;;;;;;10.43;1.80;;;8.90;87.60;;;12.09;50.48;96567.38;5052056;28;20106;-47
2023/03/26 06:31:46;;;;;;;4.30;1.60;;;8.90;87.30;;;12.10;49.97;96567.19;5060528;28;20064;-44
2023/03/26 06:34:20;;;;;;;4.03;2.05;;;8.90;87.00;;;12.09;49.96;96554.84;5058944;28;20107;-45
2023/03/26 06:36:51;;;;;;;4.17;1.80;;;8.90;87.00;;;12.09;49.83;96552.19;5052452;28;20049;-43
2023/03/26 06:39:20;;;;;;;6.97;2.33;;;8.90;86.80;;;12.11;50.00;96552.81;5042725;28;20048;-43
2023/03/26 06:41:57;;;;;;;5.57;1.80;;;8.90;86.40;;;12.13;49.90;96547.28;5052422;28;20048;-42
2023/03/26 06:44:43;;;;;;;7.73;2.47;;;8.90;85.80;;;12.13;49.76;96548.09;5052887;28;20068;-48
2023/03/26 06:47:29;;;;;;;7.77;2.20;;;9.00;84.80;;;12.13;49.72;96549.94;5058838;28;20056;-47
2023/03/26 06:50:15;;;;;;;5.60;1.53;;;8.90;84.20;;;12.14;49.57;96556.94;5045738;28;20052;-47
2023/03/26 06:52:55;;;;;;;5.60;1.50;;;8.90;84.70;;;12.10;49.28;96550.38;5063297;28;20052;-46
2023/03/26 06:55:53;;;;;;;4.53;1.87;;;8.90;82.60;;;12.10;49.07;96545.84;5058339;28;20056;-46
2023/03/26 06:58:32;;;;;;;2.90;1.70;;;8.90;82.30;;;12.11;49.02;96550.16;5039897;28;20055;-45
2023/03/26 07:01:18;;;;;;;2.33;1.23;;;8.90;82.00;;;12.15;48.76;96543.38;5066383;28;20534;-44
2023/03/26 07:04:04;;;;;;;3.27;1.23;;;8.90;82.10;;;12.18;48.83;96535.00;5059846;28;20071;-45
2023/03/26 07:06:50;;;;;;;2.37;1.20;;;9.00;81.60;;;12.20;48.81;96532.16;5060680;28;20417;-45
2023/03/26 07:09:47;;;;;;;1.90;1.07;;;9.00;80.80;;;12.24;48.62;96521.91;5057951;28;20060;-43
2023/03/26 07:12:38;;;;;;;5.13;1.80;;;9.00;81.00;;;12.26;48.73;96518.00;5052517;28;20111;-47
2023/03/26 07:15:24;;;;;;;2.73;1.70;;;9.00;81.70;;;12.27;48.29;96517.00;5061249;28;20052;-43
2023/03/26 07:18:16;;;;;;;2.47;1.13;;;9.00;80.00;;;12.28;48.41;96513.28;5057848;28;20059;-49
2023/03/26 07:20:45;;;;;;;4.33;1.63;;;9.10;80.70;;;12.31;48.39;96506.72;5038671;28;20091;-45
2023/03/26 07:23:18;;;;;;;5.17;1.57;;;9.20;80.00;;;12.31;48.50;96483.53;5046763;28;20052;-45
2023/03/26 07:25:57;;;;;;;4.97;2.13;;;9.10;80.50;;;12.33;49.03;96492.16;5051808;28;20504;-47
2023/03/26 07:28:54;;;;;;;5.53;1.77;;;9.10;83.00;;;12.35;49.73;96481.31;5049137;28;20563;-45
2023/03/26 07:32:04;;;;;;;5.77;2.47;;;9.10;84.30;;;12.31;49.46;96488.88;5054948;28;20048;-50
2023/03/26 07:35:15;;;;;;;7.33;2.93;;;9.00;85.70;;;12.24;49.65;96501.38;5065209;28;20045;-43
2023/03/26 07:38:31;;;;;;;9.20;3.87;;;8.90;85.00;;;12.18;50.10;96464.81;5046801;28;20059;-43
2023/03/26 07:41:48;;;;;;;5.23;2.57;;;8.90;87.20;;;12.14;50.42;96484.91;5040356;28;20052;-48
2023/03/26 07:45:11;;;;;;;4.80;2.30;;;8.80;89.10;;;12.11;50.46;96479.97;5062286;28;20420;-46
2023/03/26 07:47:48;;;;;;;5.03;1.63;;;8.80;90.20;;;12.12;50.66;96469.09;5032174;28;20505;-44
2023/03/26 07:50:44;;;;;;;7.70;2.07;;;8.80;90.10;;;12.11;50.87;96459.44;5057687;28;20132;-48
2023/03/26 07:53:32;;;;;;;4.67;1.67;;;8.80;90.50;;;12.15;51.38;96454.53;5057615;28;20048;-44
2023/03/26 07:56:39;;;;;;;9.33;3.73;;;8.90;90.80;;;12.18;51.13;96451.47;5059702;28;20057;-47
2023/03/26 07:59:56;;;;;;;3.30;1.73;;;9.00;90.10;;;12.20;51.20;96457.44;5044509;28;20068;-44
2023/03/26 08:03:28;;;;;;;3.87;2.23;;;9.00;91.40;;;12.19;51.47;96447.78;5040868;28;20049;-48
2023/03/26 08:06:43;;;;;;;;;;;8.90;93.70;;;12.28;50.71;96437.75;5055997;28;20499;-46
2023/03/26 08:09:40;;;;;;;7.30;3.07;;;8.90;97.10;;;12.28;51.74;96437.75;5039198;28;19929;-47
2023/03/26 08:13:09;;;;;;;5.90;3.07;;;8.80;96.40;;;12.20;51.71;96442.25;5047206;28;20048;-47
2023/03/26 08:16:18;;;;;;;5.23;1.97;;;8.80;96.50;;;12.13;51.70;96438.72;5058701;28;20037;-48
2023/03/26 08:19:06;;;;;;;6.67;4.10;;;8.90;96.10;;;12.13;52.40;96435.25;5055606;28;20048;-47
2023/03/26 08:21:52;;;;;;;8.23;3.20;;;9.00;95.80;;;12.15;52.47;96422.53;5044138;28;20454;-50
2023/03/26 08:24:35;;;;;;;5.73;2.60;;;8.90;95.40;;;12.13;52.08;96414.72;5059964;28;20045;-48
2023/03/26 08:27:49;;;;;;;7.97;3.53;;;8.90;95.60;;;12.08;52.24;96408.31;5054914;28;20063;-45
2023/03/26 08:30:21;;;;;;;4.63;3.27;;;8.90;95.50;;;12.10;52.54;96416.97;5054999;28;20040;-46
2023/03/26 08:32:55;;;;;;;4.03;1.97;;;8.90;96.00;;;12.08;52.77;96408.31;5057314;28;20045;-47
2023/03/26 08:35:25;;;;;;;8.33;2.20;;;8.90;97.10;;;12.08;52.97;96409.16;5048389;28;20045;-44
2023/03/26 08:37:53;;;;;;;5.33;2.73;;;8.80;98.00;;;12.10;53.03;96400.97;5063502;28;20047;-48
2023/03/26 08:40:49;;;;;;;5.93;2.30;;;8.80;98.80;;;12.11;52.84;96406.09;5048274;28;20053;-44
2023/03/26 08:43:57;;;;;;;3.70;2.70;;;8.90;99.40;;;12.12;53.25;96409.59;5062226;28;20044;-44
2023/03/26 08:47:06;;;;;;;3.17;2.23;;;8.90;99.90;;;12.16;52.97;96398.31;5050694;28;20097;-46
2023/03/26 08:50:02;;;;;;;5.80;2.37;;;8.90;99.90;;;12.23;53.13;96411.66;5060077;28;20044;-46
2023/03/26 08:52:51;;;;;;;7.00;2.57;;;9.00;99.90;;;12.32;53.53;96401.63;5060403;28;20048;-47
2023/03/26 08:55:42;;;;;;;3.63;2.37;;;9.10;99.90;;;12.35;53.25;96394.03;5067388;28;20037;-49
2023/03/26 08:58:40;;;;;;;7.23;2.70;;;9.10;99.90;;;12.37;53.22;96391.19;5048539;28;20044;-44
2023/03/26 09:01:20;;;;;;;5.23;3.07;;;9.20;99.90;;;12.39;53.47;96408.63;5052374;28;20071;-45
2023/03/26 09:03:57;;;;;;;5.43;2.77;;;9.30;99.90;;;12.38;53.39;96427.50;5049831;28;20060;-43
2023/03/26 09:06:55;;;;;;;11.70;2.97;;;9.20;99.90;;;12.32;53.96;96401.63;5060640;28;20068;-44
2023/03/26 09:10:23;;;;;;;5.27;2.13;;;9.10;99.90;;;12.33;53.75;96393.44;5063742;28;20051;-47
2023/03/26 09:13:29;;;;;;;7.93;3.37;;;9.20;99.90;;;12.28;53.82;96405.72;5068395;28;20055;-45
2023/03/26 09:16:12;;;;;;;9.23;3.00;;;9.20;99.90;;;12.37;53.88;96404.53;5055845;28;20037;-42
2023/03/26 09:18:45;;;;;;;3.63;2.25;;;9.20;99.90;;;12.47;54.06;96396.13;5050458;28;20054;-43
2023/03/26 09:22:03;;;;;;;4.97;2.60;;;9.30;99.90;;;12.46;54.06;96386.47;5050196;28;20048;-43
2023/03/26 09:24:55;;;;;;;8.37;4.37;;;9.30;99.90;;;12.52;54.29;96386.47;5067760;28;20361;-45
2023/03/26 09:27:49;;;;;;;4.43;2.20;;;9.30;99.90;;;12.59;54.24;96386.47;5064577;28;20045;-43
2023/03/26 09:31:01;;;;;;;2.67;1.57;;;9.40;99.90;;;12.65;54.28;96388.31;5047950;28;20052;-43
2023/03/26 09:33:47;;;;;;;5.30;2.23;;;9.50;99.90;;;12.80;54.23;96386.25;5049068;28;20522;-45
2023/03/26 09:36:51;;;;;;;5.60;2.10;;;9.70;99.90;;;12.93;54.45;96387.28;5064650;28;20470;-44
2023/03/26 09:39:42;;;;;;;10.23;2.30;;;9.90;99.90;;;13.05;54.57;96388.31;5060853;28;20041;-43
2023/03/26 09:42:42;;;;;;;7.90;1.93;;;10.00;99.90;;;13.19;54.04;96394.47;5063788;28;20116;-43
2023/03/26 09:45:56;;;;;;;3.20;1.60;;;10.20;99.90;;;13.19;53.63;96395.28;5045463;28;20500;-44
2023/03/26 09:49:00;;;;;;;2.38;1.40;;;10.20;99.90;;;13.12;53.83;96393.63;5061710;28;20056;-44
2023/03/26 09:51:53;;;;;;;4.63;1.70;;;10.20;99.90;;;13.26;53.43;96389.94;5046307;28;20111;-48
2023/03/26 09:55:21;;;;;;;3.27;1.70;;;10.20;99.90;;;13.34;53.40;96389.72;5045766;28;20052;-44
2023/03/26 09:58:26;;;;;;;6.97;1.90;;;10.30;99.90;;;13.55;53.43;96385.97;5041771;28;20043;-42
2023/03/26 10:01:39;;;;;;;2.33;1.60;;;10.50;99.90;;;13.63;52.70;96389.44;5048301;28;20060;-43
2023/03/26 10:04:52;;;;;;;4.13;2.27;;;10.60;99.60;;;13.63;52.91;96376.06;5060399;28;20049;-44
2023/03/26 10:08:06;;;;;;;5.07;1.60;;;10.60;99.90;;;13.68;53.02;96376.25;5035467;28;20068;-45
2023/03/26 10:11:15;;;;;;;3.77;1.50;;;10.70;99.90;;;13.55;52.60;96367.25;5048133;28;20061;-49
2023/03/26 10:14:24;;;;;;;8.77;1.63;;;10.60;97.00;;;13.47;53.02;96372.81;5067994;28;20430;-46
2023/03/26 10:17:40;;;;;;;4.07;1.50;;;10.50;98.70;;;13.49;52.85;96365.44;5035509;28;20041;-45
2023/03/26 10:20:32;;;;;;;2.63;1.43;;;10.50;99.00;;;13.52;53.32;96367.66;5034034;28;20045;-45
2023/03/26 10:23:30;;;;;;;4.53;1.50;;;10.60;99.60;;;13.59;53.63;96367.66;5064867;28;20044;-44
2023/03/26 10:26:16;;;;;;;3.13;1.60;;;10.70;99.90;;;13.37;51.09;96364.44;5050470;28;20044;-47
2023/03/26 10:29:16;;;;;;;2.47;1.80;;;10.80;89.80;;;13.53;50.39;96372.00;5041573;28;20535;-44
2023/03/26 10:32:27;;;;;;;3.43;1.47;;;10.90;85.10;;;13.58;49.69;96366.81;5047295;28;20059;-49
2023/03/26 10:35:36;;;;;;;1.90;1.07;;;11.10;79.50;;;13.80;49.66;96363.84;5064134;28;20044;-46
2023/03/26 10:38:22;;;;;;;2.10;1.00;;;11.20;80.10;;;13.95;49.34;96358.22;5060062;28;20435;-44
2023/03/26 10:41:22;;;;;;;3.23;1.00;;;11.20;80.90;;;14.09;49.58;96369.69;5051143;28;20052;-45
2023/03/26 10:44:26;;;;;;;2.10;1.50;;;11.40;80.80;;;13.50;48.19;96369.72;5044821;28;20471;-44
2023/03/26 10:47:24;;;;;;;4.35;1.10;;;11.20;76.00;;;13.62;48.37;96364.56;5051567;28;20044;-43
2023/03/26 10:50:48;;;;;;;2.73;0.93;;;11.20;75.00;;;13.52;46.67;96361.50;5053454;28;20500;-44
2023/03/26 10:53:49;;;;;;;1.58;0.80;;;11.20;69.00;;;13.71;46.57;96357.13;5049769;28;20052;-48
2023/03/26 10:56:42;;;;;;;2.73;1.30;;;11.30;69.00;;;14.06;47.29;96348.72;5058405;28;20044;-45
2023/03/26 10:59:16;;;;;;;2.75;0.90;;;11.50;73.80;;;14.08;45.87;96346.66;5041672;28;20048;-49
2023/03/26 11:02:25;;;;;;;1.75;0.75;;;11.50;69.10;;;14.27;45.33;96348.38;5058158;28;20045;-46
2023/03/26 11:05:38;;;;;;;1.42;0.70;;;11.70;67.00;;;14.45;45.00;96341.47;5039757;28;20033;-47
2023/03/26 11:08:34;;;;;;;1.73;0.90;;;11.80;65.60;;;14.63;44.41;96346.09;5065570;28;20044;-43
2023/03/26 11:11:22;;;;;;;2.53;1.10;;;12.00;62.60;;;14.59;43.38;96350.25;5059419;28;20385;-45
2023/03/26 11:14:26;;;;;;;3.45;3.03;;;12.00;62.60;;;14.84;43.80;96353.72;5049937;28;20041;-45
2023/03/26 11:17:26;;;;;;;2.40;0.98;;;12.30;62.40;;;14.83;42.74;96346.75;5065370;28;20443;-44
2023/03/26 11:20:31;;;;;;;2.20;1.00;;;12.30;59.40;;;14.88;41.20;96344.22;5059142;28;20072;-46
2023/03/26 11:23:35;;;;;;;1.83;1.02;;;12.40;58.00;;;14.93;41.08;96341.69;5057208;28;20551;-45
2023/03/26 11:26:24;;;;;;;1.47;1.03;;;12.40;57.10;;;15.10;42.29;96350.00;5035637;28;20254;-48
2023/03/26 11:29:17;;;;;;;1.42;0.90;;;12.50;60.70;;;15.10;40.69;96343.78;5045215;28;20051;-44
2023/03/26 11:32:24;;;;;;;2.15;0.73;;;12.50;57.00;;;14.67;41.75;96377.56;5050903;28;20053;-45
2023/03/26 11:35:04;;;;;;;2.45;0.98;;;12.20;60.80;;;14.71;43.61;96365.41;5039040;28;20041;-47
2023/03/26 11:37:45;;;;;;;1.70;1.40;;;12.00;65.10;;;14.39;45.48;96369.91;5042911;28;20044;-48